sensor_id;sensor_type;location;lat;lon;timestamp;temperature;humidity
2391;DHT22;22957;50.824;4.360;2022-09-27T00:02:09;12.40;99.90
2391;DHT22;22957;50.824;4.360;2022-09-27T00:04:35;12.00;99.90
2391;DHT22;22957;50.824;4.360;2022-09-27T00:07:00;11.80;99.90
2391;DHT22;22957;50.824;4.360;2022-09-27T00:09:26;11.70;99.90
2391;DHT22;22957;50.824;4.360;2022-09-27T00:11:52;12.00;99.90
2391;DHT22;22957;50.824;4.360;2022-09-27T00:14:18;12.30;99.90
2391;DHT22;22957;50.824;4.360;2022-09-27T00:16:44;12.20;99.90
2391;DHT22;22957;50.824;4.360;2022-09-27T00:19:18;12.00;99.90
2391;DHT22;22957;50.824;4.360;2022-09-27T00:21:45;12.10;99.90
2391;DHT22;22957;50.824;4.360;2022-09-27T00:24:16;12.40;99.90
2391;DHT22;22957;50.824;4.360;2022-09-27T00:26:42;12.30;99.90
2391;DHT22;22957;50.824;4.360;2022-09-27T00:29:09;12.40;99.90
2391;DHT22;22957;50.824;4.360;2022-09-27T00:31:36;12.70;99.90
2391;DHT22;22957;50.824;4.360;2022-09-27T00:34:03;12.70;99.90
2391;DHT22;22957;50.824;4.360;2022-09-27T00:36:31;12.30;99.90
2391;DHT22;22957;50.824;4.360;2022-09-27T00:38:57;12.70;99.90
2391;DHT22;22957;50.824;4.360;2022-09-27T00:41:34;12.50;99.90
2391;DHT22;22957;50.824;4.360;2022-09-27T00:52:32;12.60;99.90
2391;DHT22;22957;50.824;4.360;2022-09-27T00:55:09;12.60;99.90
2391;DHT22;22957;50.824;4.360;2022-09-27T00:57:36;12.80;99.90
2391;DHT22;22957;50.824;4.360;2022-09-27T01:00:10;12.60;99.90
2391;DHT22;22957;50.824;4.360;2022-09-27T01:02:39;12.50;99.90
2391;DHT22;22957;50.824;4.360;2022-09-27T01:05:07;12.50;99.90
2391;DHT22;22957;50.824;4.360;2022-09-27T01:07:34;12.40;99.90
2391;DHT22;22957;50.824;4.360;2022-09-27T01:10:00;12.80;99.90
2391;DHT22;22957;50.824;4.360;2022-09-27T01:16:03;12.80;99.90
2391;DHT22;22957;50.824;4.360;2022-09-27T01:19:01;12.60;99.90
2391;DHT22;22957;50.824;4.360;2022-09-27T01:21:26;12.60;99.90
2391;DHT22;22957;50.824;4.360;2022-09-27T01:29:48;12.60;99.90
2391;DHT22;22957;50.824;4.360;2022-09-27T01:35:47;12.70;99.90
2391;DHT22;22957;50.824;4.360;2022-09-27T01:38:29;12.20;99.90
2391;DHT22;22957;50.824;4.360;2022-09-27T01:46:14;12.30;99.90
2391;DHT22;22957;50.824;4.360;2022-09-27T01:48:44;12.20;99.90
2391;DHT22;22957;50.824;4.360;2022-09-27T01:51:16;12.20;99.90
2391;DHT22;22957;50.824;4.360;2022-09-27T01:53:46;12.30;99.90
2391;DHT22;22957;50.824;4.360;2022-09-27T01:56:26;12.60;99.90
2391;DHT22;22957;50.824;4.360;2022-09-27T01:58:59;12.20;99.90
2391;DHT22;22957;50.824;4.360;2022-09-27T02:01:29;12.00;99.90
2391;DHT22;22957;50.824;4.360;2022-09-27T02:03:58;12.20;99.90
2391;DHT22;22957;50.824;4.360;2022-09-27T02:06:31;12.10;99.90
2391;DHT22;22957;50.824;4.360;2022-09-27T02:09:04;12.10;99.90
2391;DHT22;22957;50.824;4.360;2022-09-27T02:11:32;12.20;99.90
2391;DHT22;22957;50.824;4.360;2022-09-27T02:14:07;12.30;99.90
2391;DHT22;22957;50.824;4.360;2022-09-27T02:22:25;12.20;99.90
2391;DHT22;22957;50.824;4.360;2022-09-27T02:25:00;12.30;99.90
2391;DHT22;22957;50.824;4.360;2022-09-27T02:27:44;12.30;99.90
2391;DHT22;22957;50.824;4.360;2022-09-27T02:30:14;11.80;99.90
2391;DHT22;22957;50.824;4.360;2022-09-27T02:32:40;11.80;99.90
2391;DHT22;22957;50.824;4.360;2022-09-27T02:35:15;11.70;99.90
2391;DHT22;22957;50.824;4.360;2022-09-27T02:37:42;11.70;99.90
2391;DHT22;22957;50.824;4.360;2022-09-27T02:40:09;11.70;99.90
2391;DHT22;22957;50.824;4.360;2022-09-27T02:42:34;11.60;99.90
2391;DHT22;22957;50.824;4.360;2022-09-27T02:45:02;11.60;99.90
2391;DHT22;22957;50.824;4.360;2022-09-27T02:50:52;11.90;99.90
2391;DHT22;22957;50.824;4.360;2022-09-27T02:53:15;11.30;99.90
2391;DHT22;22957;50.824;4.360;2022-09-27T02:56:18;11.60;99.90
2391;DHT22;22957;50.824;4.360;2022-09-27T03:01:26;11.20;99.90
2391;DHT22;22957;50.824;4.360;2022-09-27T03:06:29;11.30;99.90
2391;DHT22;22957;50.824;4.360;2022-09-27T03:08:57;11.30;99.90
2391;DHT22;22957;50.824;4.360;2022-09-27T03:11:22;11.30;99.90
2391;DHT22;22957;50.824;4.360;2022-09-27T03:13:48;11.40;99.90
2391;DHT22;22957;50.824;4.360;2022-09-27T03:16:14;11.20;99.90
2391;DHT22;22957;50.824;4.360;2022-09-27T03:18:40;11.60;99.90
2391;DHT22;22957;50.824;4.360;2022-09-27T03:21:07;11.30;99.90
2391;DHT22;22957;50.824;4.360;2022-09-27T03:23:33;11.60;99.90
2391;DHT22;22957;50.824;4.360;2022-09-27T03:25:59;11.70;99.90
2391;DHT22;22957;50.824;4.360;2022-09-27T03:28:24;11.40;99.90
2391;DHT22;22957;50.824;4.360;2022-09-27T03:30:51;11.70;99.90
2391;DHT22;22957;50.824;4.360;2022-09-27T03:33:16;11.60;99.90
2391;DHT22;22957;50.824;4.360;2022-09-27T03:35:42;11.90;99.90
2391;DHT22;22957;50.824;4.360;2022-09-27T03:38:09;11.70;99.90
2391;DHT22;22957;50.824;4.360;2022-09-27T03:40:35;11.30;99.90
2391;DHT22;22957;50.824;4.360;2022-09-27T03:43:01;11.80;99.90
2391;DHT22;22957;50.824;4.360;2022-09-27T03:45:26;11.50;99.90
2391;DHT22;22957;50.824;4.360;2022-09-27T03:47:52;11.80;99.90
2391;DHT22;22957;50.824;4.360;2022-09-27T03:50:19;11.50;99.90
2391;DHT22;22957;50.824;4.360;2022-09-27T03:52:45;11.40;99.90
2391;DHT22;22957;50.824;4.360;2022-09-27T03:55:11;11.50;99.90
2391;DHT22;22957;50.824;4.360;2022-09-27T03:57:37;11.80;99.90
2391;DHT22;22957;50.824;4.360;2022-09-27T04:00:04;11.60;99.90
2391;DHT22;22957;50.824;4.360;2022-09-27T04:02:31;11.70;99.90
2391;DHT22;22957;50.824;4.360;2022-09-27T04:04:56;11.50;99.90
2391;DHT22;22957;50.824;4.360;2022-09-27T04:07:22;11.60;99.90
2391;DHT22;22957;50.824;4.360;2022-09-27T04:09:48;11.70;99.90
2391;DHT22;22957;50.824;4.360;2022-09-27T04:12:14;11.70;99.90
2391;DHT22;22957;50.824;4.360;2022-09-27T04:14:40;12.00;99.90
2391;DHT22;22957;50.824;4.360;2022-09-27T04:17:06;11.90;99.90
2391;DHT22;22957;50.824;4.360;2022-09-27T04:19:32;11.50;99.90
2391;DHT22;22957;50.824;4.360;2022-09-27T04:21:57;11.50;99.90
2391;DHT22;22957;50.824;4.360;2022-09-27T04:24:23;11.80;99.90
2391;DHT22;22957;50.824;4.360;2022-09-27T04:26:49;11.80;99.90
2391;DHT22;22957;50.824;4.360;2022-09-27T04:29:16;11.60;99.90
2391;DHT22;22957;50.824;4.360;2022-09-27T04:31:42;11.50;99.90
2391;DHT22;22957;50.824;4.360;2022-09-27T04:34:09;11.00;99.90
2391;DHT22;22957;50.824;4.360;2022-09-27T04:36:35;11.00;99.90
2391;DHT22;22957;50.824;4.360;2022-09-27T04:39:04;11.30;99.90
2391;DHT22;22957;50.824;4.360;2022-09-27T04:41:31;11.30;99.90
2391;DHT22;22957;50.824;4.360;2022-09-27T04:43:57;11.90;99.90
2391;DHT22;22957;50.824;4.360;2022-09-27T04:46:26;11.80;99.90
2391;DHT22;22957;50.824;4.360;2022-09-27T04:48:59;11.80;99.90
2391;DHT22;22957;50.824;4.360;2022-09-27T04:51:25;11.70;99.90
2391;DHT22;22957;50.824;4.360;2022-09-27T04:53:51;11.90;99.90
2391;DHT22;22957;50.824;4.360;2022-09-27T04:56:17;11.70;99.90
2391;DHT22;22957;50.824;4.360;2022-09-27T04:58:43;11.50;99.90
2391;DHT22;22957;50.824;4.360;2022-09-27T05:01:09;11.70;99.90
2391;DHT22;22957;50.824;4.360;2022-09-27T05:03:36;11.20;99.90
2391;DHT22;22957;50.824;4.360;2022-09-27T05:06:01;11.10;99.90
2391;DHT22;22957;50.824;4.360;2022-09-27T05:08:27;11.30;99.90
2391;DHT22;22957;50.824;4.360;2022-09-27T05:10:54;11.50;99.90
2391;DHT22;22957;50.824;4.360;2022-09-27T05:13:20;11.30;99.90
2391;DHT22;22957;50.824;4.360;2022-09-27T05:15:45;11.60;99.90
2391;DHT22;22957;50.824;4.360;2022-09-27T05:18:11;11.30;99.90
2391;DHT22;22957;50.824;4.360;2022-09-27T05:20:37;12.00;99.90
2391;DHT22;22957;50.824;4.360;2022-09-27T05:23:04;12.10;99.90
2391;DHT22;22957;50.824;4.360;2022-09-27T05:25:31;11.70;99.90
2391;DHT22;22957;50.824;4.360;2022-09-27T05:27:57;11.60;99.90
2391;DHT22;22957;50.824;4.360;2022-09-27T05:30:26;11.40;99.90
2391;DHT22;22957;50.824;4.360;2022-09-27T05:32:52;11.90;99.90
2391;DHT22;22957;50.824;4.360;2022-09-27T05:35:19;11.20;99.90
2391;DHT22;22957;50.824;4.360;2022-09-27T05:37:56;11.40;99.90
2391;DHT22;22957;50.824;4.360;2022-09-27T05:40:23;11.40;99.90
2391;DHT22;22957;50.824;4.360;2022-09-27T05:42:53;11.20;99.90
2391;DHT22;22957;50.824;4.360;2022-09-27T05:45:20;11.30;99.90
2391;DHT22;22957;50.824;4.360;2022-09-27T05:47:54;11.60;99.90
2391;DHT22;22957;50.824;4.360;2022-09-27T05:50:20;11.90;99.90
2391;DHT22;22957;50.824;4.360;2022-09-27T05:52:47;11.60;99.90
2391;DHT22;22957;50.824;4.360;2022-09-27T05:55:13;11.70;99.90
2391;DHT22;22957;50.824;4.360;2022-09-27T05:57:39;11.80;99.90
2391;DHT22;22957;50.824;4.360;2022-09-27T06:00:05;11.80;99.90
2391;DHT22;22957;50.824;4.360;2022-09-27T06:02:32;11.70;99.90
2391;DHT22;22957;50.824;4.360;2022-09-27T06:05:00;11.80;99.90
2391;DHT22;22957;50.824;4.360;2022-09-27T06:07:30;11.80;99.90
2391;DHT22;22957;50.824;4.360;2022-09-27T06:09:57;11.50;99.90
2391;DHT22;22957;50.824;4.360;2022-09-27T06:12:23;11.50;99.90
2391;DHT22;22957;50.824;4.360;2022-09-27T06:14:49;12.00;99.90
2391;DHT22;22957;50.824;4.360;2022-09-27T06:17:16;11.80;99.90
2391;DHT22;22957;50.824;4.360;2022-09-27T06:19:44;11.90;99.90
2391;DHT22;22957;50.824;4.360;2022-09-27T06:22:12;12.00;99.90
2391;DHT22;22957;50.824;4.360;2022-09-27T06:24:38;12.00;99.90
2391;DHT22;22957;50.824;4.360;2022-09-27T06:27:03;12.00;99.90
2391;DHT22;22957;50.824;4.360;2022-09-27T06:29:29;11.40;99.90
2391;DHT22;22957;50.824;4.360;2022-09-27T06:31:59;11.90;99.90
2391;DHT22;22957;50.824;4.360;2022-09-27T06:34:25;11.90;99.90
2391;DHT22;22957;50.824;4.360;2022-09-27T06:36:51;11.20;99.90
2391;DHT22;22957;50.824;4.360;2022-09-27T06:39:17;12.00;99.90
2391;DHT22;22957;50.824;4.360;2022-09-27T06:41:42;12.00;99.90
2391;DHT22;22957;50.824;4.360;2022-09-27T06:44:08;12.10;99.90
2391;DHT22;22957;50.824;4.360;2022-09-27T06:46:34;12.00;99.90
2391;DHT22;22957;50.824;4.360;2022-09-27T06:49:00;12.00;99.90
2391;DHT22;22957;50.824;4.360;2022-09-27T06:51:25;12.20;99.90
2391;DHT22;22957;50.824;4.360;2022-09-27T06:53:51;11.90;99.90
2391;DHT22;22957;50.824;4.360;2022-09-27T06:56:17;11.80;99.90
2391;DHT22;22957;50.824;4.360;2022-09-27T06:58:42;12.00;99.90
2391;DHT22;22957;50.824;4.360;2022-09-27T07:01:28;11.90;99.90
2391;DHT22;22957;50.824;4.360;2022-09-27T07:03:53;11.80;99.90
2391;DHT22;22957;50.824;4.360;2022-09-27T07:06:20;11.70;99.90
2391;DHT22;22957;50.824;4.360;2022-09-27T07:08:50;11.70;99.90
2391;DHT22;22957;50.824;4.360;2022-09-27T07:11:17;12.40;99.90
2391;DHT22;22957;50.824;4.360;2022-09-27T07:13:43;12.10;99.90
2391;DHT22;22957;50.824;4.360;2022-09-27T07:16:13;12.20;99.90
2391;DHT22;22957;50.824;4.360;2022-09-27T07:18:40;12.50;99.90
2391;DHT22;22957;50.824;4.360;2022-09-27T07:21:07;12.00;99.90
2391;DHT22;22957;50.824;4.360;2022-09-27T07:23:36;12.10;99.90
2391;DHT22;22957;50.824;4.360;2022-09-27T07:26:03;12.40;99.90
2391;DHT22;22957;50.824;4.360;2022-09-27T07:28:32;12.60;99.90
2391;DHT22;22957;50.824;4.360;2022-09-27T07:30:58;12.70;99.90
2391;DHT22;22957;50.824;4.360;2022-09-27T07:33:24;12.60;99.90
2391;DHT22;22957;50.824;4.360;2022-09-27T07:35:50;12.60;99.90
2391;DHT22;22957;50.824;4.360;2022-09-27T07:38:15;12.20;99.90
2391;DHT22;22957;50.824;4.360;2022-09-27T07:40:42;12.20;99.90
2391;DHT22;22957;50.824;4.360;2022-09-27T07:43:07;12.60;99.90
2391;DHT22;22957;50.824;4.360;2022-09-27T07:45:37;12.40;99.90
2391;DHT22;22957;50.824;4.360;2022-09-27T07:48:07;12.60;99.90
2391;DHT22;22957;50.824;4.360;2022-09-27T07:50:34;12.70;99.90
2391;DHT22;22957;50.824;4.360;2022-09-27T07:52:59;12.20;99.90
2391;DHT22;22957;50.824;4.360;2022-09-27T07:55:25;12.30;99.90
2391;DHT22;22957;50.824;4.360;2022-09-27T07:57:51;12.30;99.90
2391;DHT22;22957;50.824;4.360;2022-09-27T08:00:18;12.10;99.90
2391;DHT22;22957;50.824;4.360;2022-09-27T08:02:47;11.60;99.90
2391;DHT22;22957;50.824;4.360;2022-09-27T08:05:12;11.90;99.90
2391;DHT22;22957;50.824;4.360;2022-09-27T08:07:39;11.70;99.90
2391;DHT22;22957;50.824;4.360;2022-09-27T08:10:07;12.20;99.90
2391;DHT22;22957;50.824;4.360;2022-09-27T08:12:33;12.40;99.90
2391;DHT22;22957;50.824;4.360;2022-09-27T08:14:59;12.40;99.90
2391;DHT22;22957;50.824;4.360;2022-09-27T08:17:27;12.60;99.90
2391;DHT22;22957;50.824;4.360;2022-09-27T08:19:53;12.90;99.90
2391;DHT22;22957;50.824;4.360;2022-09-27T08:22:19;12.90;99.90
2391;DHT22;22957;50.824;4.360;2022-09-27T08:24:46;13.50;99.90
2391;DHT22;22957;50.824;4.360;2022-09-27T08:27:13;13.50;99.90
2391;DHT22;22957;50.824;4.360;2022-09-27T08:29:39;13.60;99.90
2391;DHT22;22957;50.824;4.360;2022-09-27T08:32:09;13.30;99.90
2391;DHT22;22957;50.824;4.360;2022-09-27T08:34:35;13.70;99.90
2391;DHT22;22957;50.824;4.360;2022-09-27T08:37:01;13.80;99.90
2391;DHT22;22957;50.824;4.360;2022-09-27T08:39:26;13.60;99.90
2391;DHT22;22957;50.824;4.360;2022-09-27T08:42:34;13.60;99.90
2391;DHT22;22957;50.824;4.360;2022-09-27T08:47:53;13.90;99.90
2391;DHT22;22957;50.824;4.360;2022-09-27T08:50:29;13.50;99.90
2391;DHT22;22957;50.824;4.360;2022-09-27T08:55:40;13.40;99.90
2391;DHT22;22957;50.824;4.360;2022-09-27T08:58:20;13.30;99.90
2391;DHT22;22957;50.824;4.360;2022-09-27T09:00:49;13.50;99.90
2391;DHT22;22957;50.824;4.360;2022-09-27T09:03:18;13.70;99.90
2391;DHT22;22957;50.824;4.360;2022-09-27T09:12:07;13.40;99.90
2391;DHT22;22957;50.824;4.360;2022-09-27T09:21:28;12.40;99.90
2391;DHT22;22957;50.824;4.360;2022-09-27T09:29:23;12.20;99.90
2391;DHT22;22957;50.824;4.360;2022-09-27T09:34:48;12.50;99.90
2391;DHT22;22957;50.824;4.360;2022-09-27T09:42:58;13.30;99.90
2391;DHT22;22957;50.824;4.360;2022-09-27T09:45:56;13.50;99.90
2391;DHT22;22957;50.824;4.360;2022-09-27T09:50:51;14.00;99.90
2391;DHT22;22957;50.824;4.360;2022-09-27T09:56:11;14.10;99.90
2391;DHT22;22957;50.824;4.360;2022-09-27T09:58:43;14.00;99.90
2391;DHT22;22957;50.824;4.360;2022-09-27T10:01:21;14.40;99.90
2391;DHT22;22957;50.824;4.360;2022-09-27T10:03:49;14.50;99.90
2391;DHT22;22957;50.824;4.360;2022-09-27T10:06:16;14.90;99.90
2391;DHT22;22957;50.824;4.360;2022-09-27T10:08:44;15.10;99.90
2391;DHT22;22957;50.824;4.360;2022-09-27T10:11:26;15.80;99.90
2391;DHT22;22957;50.824;4.360;2022-09-27T10:13:53;15.70;99.90
2391;DHT22;22957;50.824;4.360;2022-09-27T10:40:01;15.80;99.90
2391;DHT22;22957;50.824;4.360;2022-09-27T10:50:32;16.50;99.90
2391;DHT22;22957;50.824;4.360;2022-09-27T10:53:10;16.20;99.90
2391;DHT22;22957;50.824;4.360;2022-09-27T10:55:38;16.40;99.90
2391;DHT22;22957;50.824;4.360;2022-09-27T10:58:05;16.70;99.90
2391;DHT22;22957;50.824;4.360;2022-09-27T11:00:35;16.80;99.90
2391;DHT22;22957;50.824;4.360;2022-09-27T11:03:04;16.20;99.90
2391;DHT22;22957;50.824;4.360;2022-09-27T11:05:36;16.20;99.90
2391;DHT22;22957;50.824;4.360;2022-09-27T11:08:22;16.30;99.90
2391;DHT22;22957;50.824;4.360;2022-09-27T11:11:04;16.60;99.90
2391;DHT22;22957;50.824;4.360;2022-09-27T11:13:31;16.90;99.90
2391;DHT22;22957;50.824;4.360;2022-09-27T11:19:03;15.80;99.90
2391;DHT22;22957;50.824;4.360;2022-09-27T11:46:04;17.90;99.90
2391;DHT22;22957;50.824;4.360;2022-09-27T11:49:19;17.80;99.90
2391;DHT22;22957;50.824;4.360;2022-09-27T11:51:57;17.70;99.90
2391;DHT22;22957;50.824;4.360;2022-09-27T11:57:29;17.70;99.90
2391;DHT22;22957;50.824;4.360;2022-09-27T12:00:04;17.40;99.90
2391;DHT22;22957;50.824;4.360;2022-09-27T12:10:52;15.60;99.90
2391;DHT22;22957;50.824;4.360;2022-09-27T12:13:42;16.00;99.90
2391;DHT22;22957;50.824;4.360;2022-09-27T12:16:09;15.50;99.90
2391;DHT22;22957;50.824;4.360;2022-09-27T12:18:38;16.10;99.90
2391;DHT22;22957;50.824;4.360;2022-09-27T12:21:06;16.40;99.90
2391;DHT22;22957;50.824;4.360;2022-09-27T12:23:46;16.60;99.90
2391;DHT22;22957;50.824;4.360;2022-09-27T12:29:13;16.60;99.90
2391;DHT22;22957;50.824;4.360;2022-09-27T12:32:11;17.10;99.90
2391;DHT22;22957;50.824;4.360;2022-09-27T12:37:34;17.60;99.90
2391;DHT22;22957;50.824;4.360;2022-09-27T12:40:25;17.00;99.90
2391;DHT22;22957;50.824;4.360;2022-09-27T12:43:18;17.50;99.90
2391;DHT22;22957;50.824;4.360;2022-09-27T12:48:55;17.60;99.90
2391;DHT22;22957;50.824;4.360;2022-09-27T12:51:32;17.50;99.90
2391;DHT22;22957;50.824;4.360;2022-09-27T12:56:56;16.60;99.90
2391;DHT22;22957;50.824;4.360;2022-09-27T13:05:31;15.30;99.90
2391;DHT22;22957;50.824;4.360;2022-09-27T13:09:09;14.00;99.90
2391;DHT22;22957;50.824;4.360;2022-09-27T13:13:42;14.60;99.90
2391;DHT22;22957;50.824;4.360;2022-09-27T13:16:09;14.70;99.90
2391;DHT22;22957;50.824;4.360;2022-09-27T13:21:05;15.00;99.90
2391;DHT22;22957;50.824;4.360;2022-09-27T13:30:57;15.70;99.90
2391;DHT22;22957;50.824;4.360;2022-09-27T13:33:31;15.80;99.90
2391;DHT22;22957;50.824;4.360;2022-09-27T13:36:07;16.50;99.90
2391;DHT22;22957;50.824;4.360;2022-09-27T13:41:20;15.80;99.90
2391;DHT22;22957;50.824;4.360;2022-09-27T13:47:00;16.00;99.90
2391;DHT22;22957;50.824;4.360;2022-09-27T13:49:39;15.60;99.90
2391;DHT22;22957;50.824;4.360;2022-09-27T13:54:55;15.80;99.90
2391;DHT22;22957;50.824;4.360;2022-09-27T14:00:29;15.80;99.90
2391;DHT22;22957;50.824;4.360;2022-09-27T14:06:01;16.20;99.90
2391;DHT22;22957;50.824;4.360;2022-09-27T14:10:58;17.20;99.90
2391;DHT22;22957;50.824;4.360;2022-09-27T14:13:25;17.20;99.90
2391;DHT22;22957;50.824;4.360;2022-09-27T14:15:53;17.30;99.90
2391;DHT22;22957;50.824;4.360;2022-09-27T14:18:20;17.30;99.90
2391;DHT22;22957;50.824;4.360;2022-09-27T14:20:50;16.70;99.90
2391;DHT22;22957;50.824;4.360;2022-09-27T14:23:21;16.90;99.90
2391;DHT22;22957;50.824;4.360;2022-09-27T14:25:48;17.20;99.90
2391;DHT22;22957;50.824;4.360;2022-09-27T14:28:26;17.50;99.90
2391;DHT22;22957;50.824;4.360;2022-09-27T14:31:15;17.10;99.90
2391;DHT22;22957;50.824;4.360;2022-09-27T14:33:42;17.10;99.90
2391;DHT22;22957;50.824;4.360;2022-09-27T14:39:29;16.90;99.90
2391;DHT22;22957;50.824;4.360;2022-09-27T14:41:58;16.90;99.90
2391;DHT22;22957;50.824;4.360;2022-09-27T14:44:25;16.90;99.90
2391;DHT22;22957;50.824;4.360;2022-09-27T14:52:24;16.20;99.90
2391;DHT22;22957;50.824;4.360;2022-09-27T14:54:58;15.80;99.90
2391;DHT22;22957;50.824;4.360;2022-09-27T14:57:27;15.50;99.90
2391;DHT22;22957;50.824;4.360;2022-09-27T15:02:51;14.80;99.90
2391;DHT22;22957;50.824;4.360;2022-09-27T15:05:28;14.50;99.90
2391;DHT22;22957;50.824;4.360;2022-09-27T15:08:00;14.20;99.90
2391;DHT22;22957;50.824;4.360;2022-09-27T15:10:29;14.30;99.90
2391;DHT22;22957;50.824;4.360;2022-09-27T15:13:00;14.50;99.90
2391;DHT22;22957;50.824;4.360;2022-09-27T15:15:33;14.40;99.90
2391;DHT22;22957;50.824;4.360;2022-09-27T15:18:01;14.70;99.90
2391;DHT22;22957;50.824;4.360;2022-09-27T15:20:34;14.40;99.90
2391;DHT22;22957;50.824;4.360;2022-09-27T15:23:02;14.60;99.90
2391;DHT22;22957;50.824;4.360;2022-09-27T15:28:05;14.60;99.90
2391;DHT22;22957;50.824;4.360;2022-09-27T15:33:02;14.90;99.90
2391;DHT22;22957;50.824;4.360;2022-09-27T15:35:31;15.70;99.90
2391;DHT22;22957;50.824;4.360;2022-09-27T15:41:02;15.40;99.90
2391;DHT22;22957;50.824;4.360;2022-09-27T15:43:34;15.60;99.90
2391;DHT22;22957;50.824;4.360;2022-09-27T15:46:37;15.80;99.90
2391;DHT22;22957;50.824;4.360;2022-09-27T15:49:25;15.60;99.90
2391;DHT22;22957;50.824;4.360;2022-09-27T15:51:54;15.30;99.90
2391;DHT22;22957;50.824;4.360;2022-09-27T15:54:22;15.20;99.90
2391;DHT22;22957;50.824;4.360;2022-09-27T15:56:50;15.80;99.90
2391;DHT22;22957;50.824;4.360;2022-09-27T15:59:24;15.50;99.90
2391;DHT22;22957;50.824;4.360;2022-09-27T16:01:57;15.10;99.90
2391;DHT22;22957;50.824;4.360;2022-09-27T16:04:24;15.50;99.90
2391;DHT22;22957;50.824;4.360;2022-09-27T16:06:54;15.60;99.90
2391;DHT22;22957;50.824;4.360;2022-09-27T16:09:20;15.30;99.90
2391;DHT22;22957;50.824;4.360;2022-09-27T16:11:50;15.50;99.90
2391;DHT22;22957;50.824;4.360;2022-09-27T16:14:17;15.50;99.90
2391;DHT22;22957;50.824;4.360;2022-09-27T16:16:49;15.50;99.90
2391;DHT22;22957;50.824;4.360;2022-09-27T16:19:16;15.50;99.90
2391;DHT22;22957;50.824;4.360;2022-09-27T16:21:42;15.60;99.90
2391;DHT22;22957;50.824;4.360;2022-09-27T16:24:11;15.40;99.90
2391;DHT22;22957;50.824;4.360;2022-09-27T16:26:38;15.20;99.90
2391;DHT22;22957;50.824;4.360;2022-09-27T16:29:08;15.20;99.90
2391;DHT22;22957;50.824;4.360;2022-09-27T16:31:34;15.20;99.90
2391;DHT22;22957;50.824;4.360;2022-09-27T16:34:01;15.60;99.90
2391;DHT22;22957;50.824;4.360;2022-09-27T16:36:26;15.20;99.90
2391;DHT22;22957;50.824;4.360;2022-09-27T16:38:53;14.90;99.90
2391;DHT22;22957;50.824;4.360;2022-09-27T16:41:20;14.70;99.90
2391;DHT22;22957;50.824;4.360;2022-09-27T16:43:47;14.90;99.90
2391;DHT22;22957;50.824;4.360;2022-09-27T16:46:14;14.80;99.90
2391;DHT22;22957;50.824;4.360;2022-09-27T16:48:45;14.80;99.90
2391;DHT22;22957;50.824;4.360;2022-09-27T16:51:17;14.80;99.90
2391;DHT22;22957;50.824;4.360;2022-09-27T16:54:03;14.70;99.90
2391;DHT22;22957;50.824;4.360;2022-09-27T16:56:30;15.00;99.90
2391;DHT22;22957;50.824;4.360;2022-09-27T16:58:57;14.90;99.90
2391;DHT22;22957;50.824;4.360;2022-09-27T17:01:24;15.20;99.90
2391;DHT22;22957;50.824;4.360;2022-09-27T17:03:51;15.30;99.90
2391;DHT22;22957;50.824;4.360;2022-09-27T17:06:19;15.20;99.90
2391;DHT22;22957;50.824;4.360;2022-09-27T17:08:46;15.60;99.90
2391;DHT22;22957;50.824;4.360;2022-09-27T17:11:16;15.00;99.90
2391;DHT22;22957;50.824;4.360;2022-09-27T17:14:03;15.00;99.90
2391;DHT22;22957;50.824;4.360;2022-09-27T17:35:40;14.80;99.90
2391;DHT22;22957;50.824;4.360;2022-09-27T17:38:23;14.50;99.90
2391;DHT22;22957;50.824;4.360;2022-09-27T17:41:23;14.40;99.90
2391;DHT22;22957;50.824;4.360;2022-09-27T17:43:56;14.20;99.90
2391;DHT22;22957;50.824;4.360;2022-09-27T17:46:33;14.30;99.90
2391;DHT22;22957;50.824;4.360;2022-09-27T17:57:29;15.10;99.90
2391;DHT22;22957;50.824;4.360;2022-09-27T18:00:08;15.00;99.90
2391;DHT22;22957;50.824;4.360;2022-09-27T18:02:56;14.30;99.90
2391;DHT22;22957;50.824;4.360;2022-09-27T18:21:03;14.50;99.90
2391;DHT22;22957;50.824;4.360;2022-09-27T18:23:31;14.60;99.90
2391;DHT22;22957;50.824;4.360;2022-09-27T18:25:57;14.40;99.90
2391;DHT22;22957;50.824;4.360;2022-09-27T18:28:27;14.50;99.90
2391;DHT22;22957;50.824;4.360;2022-09-27T18:31:02;14.40;99.90
2391;DHT22;22957;50.824;4.360;2022-09-27T18:33:28;13.70;99.90
2391;DHT22;22957;50.824;4.360;2022-09-27T18:35:54;13.60;99.90
2391;DHT22;22957;50.824;4.360;2022-09-27T18:38:21;13.00;99.90
2391;DHT22;22957;50.824;4.360;2022-09-27T18:40:47;13.10;99.90
2391;DHT22;22957;50.824;4.360;2022-09-27T18:43:13;13.20;99.90
2391;DHT22;22957;50.824;4.360;2022-09-27T18:45:39;13.10;99.90
2391;DHT22;22957;50.824;4.360;2022-09-27T18:48:05;13.20;99.90
2391;DHT22;22957;50.824;4.360;2022-09-27T18:50:35;13.30;99.90
2391;DHT22;22957;50.824;4.360;2022-09-27T18:53:01;12.80;99.90
2391;DHT22;22957;50.824;4.360;2022-09-27T18:55:28;12.80;99.90
2391;DHT22;22957;50.824;4.360;2022-09-27T18:57:58;12.80;99.90
2391;DHT22;22957;50.824;4.360;2022-09-27T19:00:26;12.90;99.90
2391;DHT22;22957;50.824;4.360;2022-09-27T19:02:53;12.90;99.90
2391;DHT22;22957;50.824;4.360;2022-09-27T19:05:20;13.10;99.90
2391;DHT22;22957;50.824;4.360;2022-09-27T19:07:46;12.80;99.90
2391;DHT22;22957;50.824;4.360;2022-09-27T19:10:15;12.80;99.90
2391;DHT22;22957;50.824;4.360;2022-09-27T19:12:42;13.20;99.90
2391;DHT22;22957;50.824;4.360;2022-09-27T19:15:09;12.60;99.90
2391;DHT22;22957;50.824;4.360;2022-09-27T19:17:35;12.80;99.90
2391;DHT22;22957;50.824;4.360;2022-09-27T19:20:01;12.90;99.90
2391;DHT22;22957;50.824;4.360;2022-09-27T19:22:28;12.70;99.90
2391;DHT22;22957;50.824;4.360;2022-09-27T19:24:53;12.50;99.90
2391;DHT22;22957;50.824;4.360;2022-09-27T19:27:19;12.50;99.90
2391;DHT22;22957;50.824;4.360;2022-09-27T19:29:45;12.80;99.90
2391;DHT22;22957;50.824;4.360;2022-09-27T19:32:10;12.70;99.90
2391;DHT22;22957;50.824;4.360;2022-09-27T19:34:36;12.70;99.90
2391;DHT22;22957;50.824;4.360;2022-09-27T19:37:02;12.90;99.90
2391;DHT22;22957;50.824;4.360;2022-09-27T19:39:28;13.00;99.90
2391;DHT22;22957;50.824;4.360;2022-09-27T19:41:54;12.90;99.90
2391;DHT22;22957;50.824;4.360;2022-09-27T19:44:20;13.20;99.90
2391;DHT22;22957;50.824;4.360;2022-09-27T19:49:14;13.20;99.90
2391;DHT22;22957;50.824;4.360;2022-09-27T19:51:43;13.50;99.90
2391;DHT22;22957;50.824;4.360;2022-09-27T19:54:09;13.90;99.90
2391;DHT22;22957;50.824;4.360;2022-09-27T19:56:36;14.00;99.90
2391;DHT22;22957;50.824;4.360;2022-09-27T19:59:02;14.10;99.90
2391;DHT22;22957;50.824;4.360;2022-09-27T20:01:28;13.90;99.90
2391;DHT22;22957;50.824;4.360;2022-09-27T20:09:01;14.00;99.90
2391;DHT22;22957;50.824;4.360;2022-09-27T20:11:30;13.40;99.90
2391;DHT22;22957;50.824;4.360;2022-09-27T20:14:03;12.90;99.90
2391;DHT22;22957;50.824;4.360;2022-09-27T20:16:37;12.50;99.90
2391;DHT22;22957;50.824;4.360;2022-09-27T20:19:07;12.80;99.90
2391;DHT22;22957;50.824;4.360;2022-09-27T20:21:36;12.30;99.90
2391;DHT22;22957;50.824;4.360;2022-09-27T20:24:07;12.60;99.90
2391;DHT22;22957;50.824;4.360;2022-09-27T20:26:37;12.40;99.90
2391;DHT22;22957;50.824;4.360;2022-09-27T20:29:25;12.40;99.90